Time;durP1;ratioP1;P1;durP2;ratioP2;P2;SDS_P1;SDS_P2;PMS_P1;PMS_P2;Temp;Humidity;BMP_temperature;BMP_pressure;BME280_temperature;BME280_humidity;BME280_pressure;Samples;Min_cycle;Max_cycle;Signal;HPM_P1;HPM_P2
2022/09/17 00:00:25;;;;;;;4.10;1.27;;;;;;;15.65;99.58;99690.78;5024345;28;20025;-70
2022/09/17 00:02:54;;;;;;;2.25;0.52;;;;;;;15.65;99.86;99682.66;5031248;28;20029;-70
2022/09/17 00:05:22;;;;;;;9.90;1.25;;;;;;;15.72;98.85;99687.19;5039490;28;20076;-69
2022/09/17 00:07:48;;;;;;;15.57;1.60;;;;;;;15.73;98.71;99692.22;5031364;28;20095;-70
2022/09/17 00:10:14;;;;;;;7.55;0.82;;;;;;;15.66;99.45;99692.31;5031992;28;20437;-70
2022/09/17 00:12:39;;;;;;;6.22;1.23;;;;;;;15.70;99.24;99687.59;5040501;28;20124;-70
2022/09/17 00:15:05;;;;;;;5.35;0.77;;;;;;;15.61;99.07;99698.22;5025049;28;20040;-70
2022/09/17 00:17:30;;;;;;;4.32;1.15;;;;;;;15.59;99.06;99694.38;5031758;28;20033;-70
2022/09/17 00:19:56;;;;;;;5.22;1.00;;;;;;;15.55;98.94;99691.72;5032274;28;20052;-70
2022/09/17 00:22:21;;;;;;;7.07;1.70;;;;;;;15.60;99.13;99696.66;5029812;28;20099;-69
2022/09/17 00:24:47;;;;;;;1.20;0.65;;;;;;;15.70;98.57;99697.72;5044378;28;20032;-69
2022/09/17 00:27:12;;;;;;;11.27;1.25;;;;;;;15.61;98.48;99700.16;5019137;28;20394;-69
2022/09/17 00:29:38;;;;;;;4.05;0.52;;;;;;;15.58;97.84;99701.75;5031100;28;20025;-69
2022/09/17 00:32:03;;;;;;;2.35;0.82;;;;;;;15.49;98.41;99700.72;5027147;28;20037;-69
2022/09/17 00:34:29;;;;;;;6.20;0.85;;;;;;;15.53;98.41;99699.50;5028693;28;20108;-69
2022/09/17 00:36:54;;;;;;;5.57;0.80;;;;;;;15.58;97.25;99704.47;5030943;28;20041;-69
2022/09/17 00:39:19;;;;;;;10.07;1.30;;;;;;;15.51;97.67;99693.72;5029982;28;20017;-69
2022/09/17 00:41:45;;;;;;;4.20;0.85;;;;;;;15.42;98.05;99690.00;5021519;28;20045;-69
2022/09/17 00:44:46;;;;;;;2.35;0.52;;;;;;;15.48;97.92;99696.50;5025433;28;20045;-69
2022/09/17 00:47:41;;;;;;;7.43;1.13;;;;;;;15.47;97.83;99705.81;5036340;28;20048;-69
2022/09/17 00:50:11;;;;;;;3.75;1.00;;;;;;;15.47;97.94;99705.81;5019966;28;20414;-69
2022/09/17 00:52:48;;;;;;;9.75;1.80;;;;;;;15.53;97.94;99699.50;5030659;28;20048;-69
2022/09/17 00:55:37;;;;;;;4.60;0.85;;;;;;;15.52;97.49;99706.13;5055648;28;20033;-69
2022/09/17 00:58:05;;;;;;;7.90;1.50;;;;;;;15.56;97.70;99706.84;5025924;28;20145;-69
2022/09/17 01:00:31;;;;;;;7.65;1.02;;;;;;;15.54;97.56;99701.06;5030516;28;20029;-69
2022/09/17 01:02:57;;;;;;;22.58;1.50;;;;;;;15.50;97.10;99703.06;5044405;28;20429;-69
2022/09/17 01:05:35;;;;;;;1.27;0.55;;;;;;;15.58;97.19;99695.56;5020195;28;20033;-69
2022/09/17 01:08:12;;;;;;;7.00;1.50;;;;;;;15.48;96.88;99713.56;5027732;28;20061;-69
2022/09/17 01:10:54;;;;;;;6.97;0.95;;;;;;;15.50;96.96;99713.91;5029329;28;20033;-69
2022/09/17 01:14:01;;;;;;;1.40;0.60;;;;;;;15.45;96.81;99711.63;5020151;28;20033;-69
2022/09/17 01:16:56;;;;;;;6.30;0.80;;;;;;;15.40;96.87;99712.09;5031025;28;20037;-69
2022/09/17 01:19:34;;;;;;;5.40;0.65;;;;;;;15.33;96.58;99712.94;5029193;28;20514;-69
2022/09/17 01:22:18;;;;;;;6.88;1.10;;;;;;;15.32;96.43;99713.38;5026235;28;20159;-69
2022/09/17 01:24:52;;;;;;;5.15;0.93;;;;;;;15.31;95.96;99707.16;5031436;28;20036;-70
2022/09/17 01:27:47;;;;;;;5.03;0.82;;;;;;;15.29;96.20;99709.50;5035784;28;20045;-69
2022/09/17 01:30:51;;;;;;;9.57;1.40;;;;;;;15.20;96.78;99716.63;5001129;28;20084;-69
2022/09/17 01:33:40;;;;;;;11.63;1.05;;;;;;;15.19;96.50;99712.38;4998872;28;20102;-69
2022/09/17 01:36:18;;;;;;;3.40;0.82;;;;;;;15.10;96.83;99712.09;5028661;28;20108;-69
2022/09/17 01:38:56;;;;;;;8.63;1.10;;;;;;;15.15;97.15;99727.94;5030996;28;20390;-69
2022/09/17 01:41:45;;;;;;;3.20;0.90;;;;;;;15.20;96.64;99722.06;5029427;28;20033;-69
2022/09/17 01:44:17;;;;;;;3.30;1.25;;;;;;;15.19;96.95;99720.53;5015706;28;20037;-69
2022/09/17 01:46:50;;;;;;;4.57;0.63;;;;;;;15.19;96.85;99720.53;5033295;28;20433;-69
2022/09/17 01:49:16;;;;;;;3.78;0.88;;;;;;;15.20;96.46;99717.41;5033709;28;20025;-69
2022/09/17 01:51:45;;;;;;;4.05;0.77;;;;;;;15.21;96.18;99718.19;5030424;28;20068;-69
2022/09/17 01:54:28;;;;;;;11.40;1.20;;;;;;;15.18;96.57;99727.88;5027239;28;20033;-69
2022/09/17 01:57:11;;;;;;;2.30;0.80;;;;;;;15.24;96.17;99726.25;5024317;28;20048;-69
2022/09/17 01:59:46;;;;;;;6.13;0.75;;;;;;;15.24;95.79;99720.06;5024952;28;20045;-69
2022/09/17 02:02:17;;;;;;;3.60;1.17;;;;;;;15.20;96.25;99730.19;5029847;28;20033;-69
2022/09/17 02:04:54;;;;;;;1.05;0.57;;;;;;;15.25;96.36;99735.19;5029550;28;20033;-69
2022/09/17 02:07:24;;;;;;;2.92;0.90;;;;;;;15.28;95.64;99737.06;5032298;28;20070;-70
2022/09/17 02:10:21;;;;;;;5.53;1.00;;;;;;;15.10;95.96;99731.88;5019755;28;20042;-69
2022/09/17 02:13:00;;;;;;;6.32;0.90;;;;;;;15.15;96.50;99731.44;5009408;28;20053;-69
2022/09/17 02:15:33;;;;;;;4.47;0.60;;;;;;;15.19;96.53;99734.09;5027599;28;20039;-69
2022/09/17 02:18:23;;;;;;;0.85;0.28;;;;;;;15.24;95.74;99733.63;5039378;28;20045;-70
2022/09/17 02:21:04;;;;;;;6.00;1.00;;;;;;;15.24;95.58;99730.91;5029923;28;20046;-70
2022/09/17 02:23:35;;;;;;;5.30;0.63;;;;;;;15.15;95.62;99736.84;5027595;28;20027;-70
2022/09/17 02:26:19;;;;;;;6.43;0.98;;;;;;;15.09;95.00;99741.19;5008667;28;20383;-70
2022/09/17 02:29:01;;;;;;;4.30;0.80;;;;;;;15.13;95.34;99738.44;5043067;28;20061;-70
2022/09/17 02:31:27;;;;;;;1.90;0.43;;;;;;;15.10;95.19;99726.44;5039191;28;20398;-70
2022/09/17 02:33:59;;;;;;;2.58;0.98;;;;;;;15.05;95.12;99736.97;5027382;28;20025;-70
2022/09/17 02:36:24;;;;;;;;;;;;;;;15.05;95.22;99739.69;5030470;28;20047;-69
2022/09/17 02:38:57;;;;;;;6.38;1.10;;;;;;;14.99;95.41;99744.03;5024538;28;19913;-70
2022/09/17 02:41:30;;;;;;;6.57;1.67;;;;;;;15.07;94.72;99745.47;5030693;28;20040;-70
2022/09/17 02:44:20;;;;;;;6.10;0.98;;;;;;;15.01;94.95;99744.38;5035431;28;20390;-70
2022/09/17 02:47:08;;;;;;;0.50;0.45;;;;;;;14.96;95.88;99740.19;5028582;28;20065;-70
2022/09/17 02:49:48;;;;;;;5.65;1.23;;;;;;;15.01;95.84;99738.97;5001243;28;20136;-70
2022/09/17 02:52:41;;;;;;;6.95;0.98;;;;;;;15.06;95.66;99733.09;5038330;28;20033;-70
2022/09/17 02:55:26;;;;;;;9.65;0.75;;;;;;;15.03;96.02;99729.25;5018597;28;20319;-70
2022/09/17 02:58:11;;;;;;;2.80;0.85;;;;;;;15.03;96.48;99737.41;5038211;28;20037;-70
2022/09/17 03:00:37;;;;;;;2.60;1.13;;;;;;;15.05;95.93;99731.56;5028400;28;20504;-70
2022/09/17 03:03:19;;;;;;;4.80;0.88;;;;;;;15.10;96.24;99731.88;5031671;28;20041;-70
2022/09/17 03:05:44;;;;;;;;;;;;;;;15.01;96.09;99733.53;5038340;28;20148;-70
2022/09/17 03:08:13;;;;;;;3.60;1.25;;;;;;;15.00;96.69;99732.03;5041555;28;19975;-70
2022/09/17 03:10:39;;;;;;;3.22;0.93;;;;;;;14.99;96.35;99733.19;5033040;28;20120;-70
2022/09/17 03:13:05;;;;;;;1.95;0.68;;;;;;;14.99;96.11;99733.97;5030568;28;20116;-70
2022/09/17 03:15:30;;;;;;;4.00;0.95;;;;;;;14.92;96.18;99730.56;5046280;28;20112;-70
2022/09/17 03:17:56;;;;;;;6.40;0.95;;;;;;;14.78;96.93;99738.88;5036626;28;20120;-70
2022/09/17 03:20:21;;;;;;;1.80;0.82;;;;;;;14.78;97.19;99733.44;5033223;28;20481;-70
2022/09/17 03:22:47;;;;;;;3.03;0.73;;;;;;;14.85;96.99;99744.97;5031045;28;20033;-70
2022/09/17 03:25:12;;;;;;;4.30;0.50;;;;;;;14.84;97.37;99734.53;5032355;28;20502;-70
2022/09/17 03:27:38;;;;;;;4.28;0.73;;;;;;;14.91;97.31;99742.56;5033185;28;20139;-70
2022/09/17 03:30:05;;;;;;;1.63;0.50;;;;;;;14.86;97.21;99730.25;5032110;28;20072;-70
2022/09/17 03:32:31;;;;;;;9.55;1.13;;;;;;;14.91;97.33;99737.16;5021986;28;20029;-70
2022/09/17 03:34:57;;;;;;;4.80;0.65;;;;;;;14.92;97.38;99723.22;5010124;28;20288;-70
2022/09/17 03:37:22;;;;;;;7.68;0.93;;;;;;;14.97;96.52;99732.81;5049796;23;20462;-68
2022/09/17 03:39:47;;;;;;;12.18;1.70;;;;;;;15.00;96.93;99743.63;5013636;28;20374;-68
2022/09/17 03:42:13;;;;;;;5.32;1.48;;;;;;;15.00;96.69;99748.28;5033992;28;20508;-68
2022/09/17 03:44:38;;;;;;;1.65;0.55;;;;;;;14.94;96.70;99747.19;5032017;28;20488;-68
2022/09/17 03:47:04;;;;;;;7.40;1.30;;;;;;;14.95;96.70;99740.59;5035807;28;20025;-68
2022/09/17 03:49:29;;;;;;;4.53;1.08;;;;;;;14.94;96.67;99745.22;5051391;28;20036;-68
2022/09/17 03:51:55;;;;;;;7.72;2.60;;;;;;;14.94;96.98;99745.22;5045688;28;20035;-68
2022/09/17 03:54:20;;;;;;;2.25;0.60;;;;;;;14.95;97.01;99749.50;5051346;28;20396;-68
2022/09/17 03:56:45;;;;;;;5.03;0.93;;;;;;;14.95;97.31;99746.00;5031394;28;20703;-68
2022/09/17 03:59:11;;;;;;;10.27;1.30;;;;;;;14.93;97.27;99743.72;5052839;28;20082;-68
2022/09/17 04:01:36;;;;;;;7.90;0.95;;;;;;;14.97;97.32;99746.38;5036642;28;20388;-68
2022/09/17 04:04:02;;;;;;;7.05;1.13;;;;;;;14.96;97.30;99759.16;5051466;28;20033;-67
2022/09/17 04:06:28;;;;;;;4.65;1.23;;;;;;;14.90;97.34;99751.91;5046632;28;20033;-68
2022/09/17 04:08:54;;;;;;;4.22;1.33;;;;;;;14.87;97.48;99749.97;5018756;28;20033;-68
2022/09/17 04:11:20;;;;;;;4.93;0.82;;;;;;;14.93;96.99;99759.97;5065092;28;20045;-68
2022/09/17 04:13:45;;;;;;;5.07;1.63;;;;;;;14.84;96.64;99757.00;5057012;28;20493;-68
2022/09/17 04:16:11;;;;;;;7.03;1.27;;;;;;;14.88;96.96;99757.72;5033788;28;20025;-69
2022/09/17 04:18:37;;;;;;;8.02;0.95;;;;;;;14.92;96.64;99753.03;5038764;28;20033;-68
2022/09/17 04:21:03;;;;;;;6.75;1.05;;;;;;;14.88;96.73;99760.44;5046278;28;20038;-68
2022/09/17 04:23:28;;;;;;;1.65;0.80;;;;;;;14.83;96.86;99758.16;5049572;28;20400;-68
2022/09/17 04:25:54;;;;;;;4.35;1.27;;;;;;;14.88;97.01;99762.38;5035374;28;20057;-68
2022/09/17 04:28:19;;;;;;;1.23;0.40;;;;;;;14.86;96.95;99764.72;5054084;28;20136;-68
2022/09/17 04:30:46;;;;;;;2.45;0.93;;;;;;;14.75;97.53;99761.38;5052796;28;20040;-68
2022/09/17 04:33:13;;;;;;;1.50;0.77;;;;;;;14.72;97.65;99765.66;5054717;28;20403;-68
2022/09/17 04:35:38;;;;;;;2.90;1.02;;;;;;;14.68;98.14;99769.56;5051280;28;20036;-68
2022/09/17 04:38:04;;;;;;;1.00;0.50;;;;;;;14.64;98.28;99771.53;5051422;28;20041;-68
2022/09/17 04:40:29;;;;;;;4.07;0.75;;;;;;;14.78;97.52;99764.03;5050244;28;20029;-68
2022/09/17 04:42:58;;;;;;;2.28;0.45;;;;;;;14.78;97.50;99768.69;5051843;28;20032;-68
2022/09/17 04:45:24;;;;;;;10.43;1.60;;;;;;;14.81;97.10;99778.69;5029563;28;20155;-68
2022/09/17 04:47:50;;;;;;;1.05;0.20;;;;;;;14.68;97.70;99775.75;5051174;28;20029;-68
2022/09/17 04:50:19;;;;;;;3.58;0.50;;;;;;;14.73;97.54;99775.31;5051807;28;20040;-68
2022/09/17 04:52:45;;;;;;;3.08;0.80;;;;;;;14.73;97.78;99777.28;5030933;28;20037;-68
2022/09/17 04:55:11;;;;;;;1.75;0.38;;;;;;;14.77;97.66;99794.25;5051010;28;20048;-68
2022/09/17 04:57:37;;;;;;;7.80;1.00;;;;;;;14.83;97.11;99795.34;5051647;28;20037;-67
2022/09/17 05:00:05;;;;;;;5.20;0.38;;;;;;;14.84;97.03;99797.66;5051457;28;20035;-68
2022/09/17 05:02:31;;;;;;;1.15;0.40;;;;;;;14.86;96.65;99802.69;5046669;28;20040;-68
2022/09/17 05:04:57;;;;;;;2.20;0.70;;;;;;;14.82;97.25;99801.94;5036071;28;20022;-68
2022/09/17 05:07:22;;;;;;;5.22;0.43;;;;;;;14.72;97.98;99786.56;5033509;28;20021;-67
2022/09/17 05:09:48;;;;;;;2.67;0.93;;;;;;;14.78;97.74;99782.22;5043478;28;20037;-67
2022/09/17 05:12:13;;;;;;;1.27;0.40;;;;;;;14.70;97.61;99786.19;5042213;28;20073;-67
2022/09/17 05:14:39;;;;;;;3.15;0.70;;;;;;;14.74;97.65;99792.34;5042027;28;20029;-69
2022/09/17 05:17:04;;;;;;;3.63;0.63;;;;;;;14.65;97.90;99798.25;5051103;28;20112;-67
2022/09/17 05:19:30;;;;;;;3.63;0.50;;;;;;;14.73;98.01;99788.84;5044544;28;20044;-67
2022/09/17 05:21:55;;;;;;;0.98;0.57;;;;;;;14.74;97.61;99801.25;5037528;28;20108;-68
2022/09/17 05:24:20;;;;;;;2.70;0.50;;;;;;;14.85;97.05;99793.00;5031728;28;20057;-68
2022/09/17 05:26:46;;;;;;;10.13;0.80;;;;;;;14.80;97.18;99799.66;5028089;28;20406;-67
2022/09/17 05:29:11;;;;;;;2.17;0.60;;;;;;;14.79;97.33;99808.19;5058330;28;20024;-68
2022/09/17 05:31:37;;;;;;;3.15;0.90;;;;;;;14.79;97.16;99803.50;5055336;28;20416;-68
2022/09/17 05:34:02;;;;;;;0.77;0.40;;;;;;;14.78;97.39;99801.97;5032390;28;20059;-68
2022/09/17 05:36:28;;;;;;;4.40;0.52;;;;;;;14.81;97.79;99800.38;5050261;28;20068;-68
2022/09/17 05:38:53;;;;;;;6.10;0.63;;;;;;;14.79;97.66;99791.91;5044563;28;20390;-68
2022/09/17 05:41:19;;;;;;;1.02;0.43;;;;;;;14.80;97.96;99804.28;5062642;28;20040;-67
2022/09/17 05:43:44;;;;;;;4.97;1.05;;;;;;;14.84;97.93;99811.22;5049401;28;20081;-68
2022/09/17 05:46:10;;;;;;;5.90;0.65;;;;;;;14.79;98.00;99806.22;5050081;28;20056;-68
2022/09/17 05:48:35;;;;;;;3.17;0.70;;;;;;;14.80;97.64;99809.72;5044951;28;20051;-68
2022/09/17 05:51:00;;;;;;;6.85;0.98;;;;;;;14.93;97.67;99813.44;5050628;28;20045;-68
2022/09/17 05:53:26;;;;;;;6.80;1.17;;;;;;;14.92;97.42;99812.69;5044804;28;20036;-68
2022/09/17 05:55:56;;;;;;;2.92;0.60;;;;;;;14.83;97.48;99806.94;5056445;28;20041;-68
2022/09/17 05:58:21;;;;;;;8.68;2.33;;;;;;;14.88;97.29;99817.38;5050101;28;20461;-68
2022/09/17 06:00:47;;;;;;;1.35;0.70;;;;;;;14.83;97.40;99808.88;5048882;28;20112;-68
2022/09/17 06:03:15;;;;;;;7.95;0.82;;;;;;;14.80;97.82;99807.00;5044293;28;20401;-68
2022/09/17 06:05:41;;;;;;;6.85;1.10;;;;;;;14.77;98.20;99815.94;5056975;28;20086;-68
2022/09/17 06:08:07;;;;;;;3.65;0.57;;;;;;;14.90;97.33;99822.38;5032705;28;20500;-68
2022/09/17 06:10:36;;;;;;;1.42;0.80;;;;;;;14.83;97.71;99819.72;5049264;28;20033;-68
2022/09/17 06:13:01;;;;;;;5.78;0.63;;;;;;;14.74;98.34;99827.59;5029536;28;20056;-68
2022/09/17 06:15:27;;;;;;;4.20;0.73;;;;;;;14.80;98.40;99817.84;5037530;28;20036;-67
2022/09/17 06:17:53;;;;;;;5.95;1.17;;;;;;;14.79;98.62;99824.44;5054530;28;20033;-66
2022/09/17 06:20:19;;;;;;;3.15;0.52;;;;;;;14.90;98.36;99828.59;5045358;28;20048;-67
2022/09/17 06:22:44;;;;;;;1.83;0.47;;;;;;;14.84;97.54;99834.84;5043746;28;20041;-68
2022/09/17 06:25:10;;;;;;;1.80;0.40;;;;;;;14.88;97.26;99841.00;5060169;28;20044;-67
2022/09/17 06:27:36;;;;;;;3.45;0.95;;;;;;;14.91;96.63;99830.09;5050229;28;20128;-68
2022/09/17 06:30:02;;;;;;;6.75;0.73;;;;;;;14.94;96.22;99825.84;5052457;28;20108;-68
2022/09/17 06:32:28;;;;;;;3.13;0.50;;;;;;;14.82;96.68;99837.97;5038410;28;20672;-67
2022/09/17 06:34:57;;;;;;;0.77;0.30;;;;;;;14.86;96.49;99835.22;5054309;28;20028;-67
2022/09/17 06:37:31;;;;;;;3.03;0.93;;;;;;;14.87;96.28;99834.78;5057681;28;20048;-68
2022/09/17 06:39:57;;;;;;;2.13;0.47;;;;;;;14.85;95.79;99847.22;5027822;28;20049;-67
2022/09/17 06:42:23;;;;;;;2.28;0.50;;;;;;;14.82;96.18;99845.31;5042647;28;20043;-67
2022/09/17 06:44:49;;;;;;;4.03;0.57;;;;;;;14.82;95.93;99843.38;5036306;28;20485;-67
2022/09/17 06:47:14;;;;;;;4.20;0.40;;;;;;;14.82;95.92;99846.09;5054094;28;20037;-68
2022/09/17 06:49:40;;;;;;;3.42;0.30;;;;;;;14.85;96.71;99845.28;5053892;28;20029;-67
2022/09/17 06:52:05;;;;;;;9.45;0.65;;;;;;;14.95;95.81;99838.97;5040631;28;20040;-67
2022/09/17 06:54:31;;;;;;;1.27;0.68;;;;;;;14.97;95.50;99836.63;5046315;28;20024;-69
2022/09/17 06:56:59;;;;;;;3.20;0.73;;;;;;;14.81;96.01;99839.13;5052706;28;20115;-67
2022/09/17 06:59:26;;;;;;;3.92;0.40;;;;;;;14.90;94.47;99846.78;5066414;28;20029;-68
2022/09/17 07:01:51;;;;;;;4.82;0.40;;;;;;;14.85;94.87;99839.06;5053503;28;20441;-67
2022/09/17 07:04:17;;;;;;;1.25;0.40;;;;;;;14.83;95.67;99842.19;5033018;28;20068;-68
2022/09/17 07:06:43;;;;;;;3.15;0.40;;;;;;;14.87;95.57;99839.44;5055583;28;20040;-68
2022/09/17 07:09:09;;;;;;;0.60;0.43;;;;;;;14.97;95.15;99846.69;5057132;28;20029;-68
2022/09/17 07:11:35;;;;;;;7.20;1.38;;;;;;;15.02;94.92;99844.31;5053684;28;20029;-67
2022/09/17 07:14:00;;;;;;;1.45;0.30;;;;;;;15.09;94.33;99846.97;5043772;28;20375;-68
2022/09/17 07:16:26;;;;;;;1.10;0.40;;;;;;;15.14;93.78;99845.72;5065319;28;20028;-68
2022/09/17 07:18:52;;;;;;;1.88;0.80;;;;;;;15.11;93.53;99841.13;5053694;28;20111;-67
2022/09/17 07:21:17;;;;;;;1.25;0.30;;;;;;;15.11;93.26;99841.13;5053498;28;20509;-68
2022/09/17 07:23:44;;;;;;;0.73;0.50;;;;;;;15.19;92.40;99837.16;5021555;28;20116;-67
2022/09/17 07:26:15;;;;;;;3.50;0.57;;;;;;;15.38;92.41;99844.69;5016027;28;20320;-65
2022/09/17 07:28:42;;;;;;;0.65;0.22;;;;;;;15.64;91.37;99840.50;5035388;28;20044;-65
2022/09/17 07:31:09;;;;;;;2.28;0.55;;;;;;;15.80;91.61;99844.16;5052690;28;20032;-66
2022/09/17 07:33:35;;;;;;;2.25;0.40;;;;;;;16.11;90.71;99848.34;5052509;28;20044;-66
2022/09/17 07:36:06;;;;;;;3.40;0.52;;;;;;;16.43;88.26;99852.50;5043162;28;20040;-66
2022/09/17 07:38:32;;;;;;;0.45;0.20;;;;;;;16.72;86.43;99854.38;5048754;28;20043;-65
2022/09/17 07:41:04;;;;;;;0.95;0.20;;;;;;;16.91;85.83;99861.00;5034341;28;20090;-66
2022/09/17 07:43:34;;;;;;;1.63;0.30;;;;;;;17.19;83.35;99860.47;5046434;28;20041;-66
2022/09/17 07:46:02;;;;;;;4.40;0.85;;;;;;;17.47;81.65;99861.84;5043584;28;20032;-66
2022/09/17 07:48:29;;;;;;;0.20;0.17;;;;;;;17.56;80.04;99862.84;5058327;28;20457;-66
2022/09/17 07:50:55;;;;;;;0.17;0.03;;;;;;;17.80;79.89;99868.97;5014577;28;20476;-66
2022/09/17 07:53:21;;;;;;;2.53;0.20;;;;;;;17.76;77.64;99858.16;5051356;28;20045;-66
2022/09/17 07:55:53;;;;;;;2.13;0.22;;;;;;;17.73;77.38;99867.16;5047463;28;20029;-66
2022/09/17 07:58:20;;;;;;;0.20;0.08;;;;;;;17.95;76.77;99868.22;5049530;28;20112;-66
2022/09/17 08:00:47;;;;;;;2.05;0.22;;;;;;;18.09;75.44;99866.34;5035646;28;20068;-66
2022/09/17 08:03:12;;;;;;;2.88;0.30;;;;;;;18.21;75.14;99854.78;5052445;28;20040;-67
2022/09/17 08:05:38;;;;;;;0.30;0.05;;;;;;;18.37;74.39;99843.88;5042952;28;20029;-67
2022/09/17 08:08:03;;;;;;;0.60;0.30;;;;;;;18.49;75.17;99854.13;5021577;28;20037;-69
2022/09/17 08:10:29;;;;;;;4.15;0.28;;;;;;;18.79;73.21;99859.94;5032396;28;20036;-69
2022/09/17 08:12:56;;;;;;;5.18;0.32;;;;;;;18.89;71.93;99855.44;5022512;28;20405;-69
2022/09/17 08:15:23;;;;;;;1.05;0.22;;;;;;;18.95;71.83;99861.88;5029156;28;21443;-69
2022/09/17 08:17:49;;;;;;;0.30;0.20;;;;;;;19.07;72.36;99861.16;5037973;28;20037;-69
2022/09/17 08:20:16;;;;;;;0.50;0.45;;;;;;;19.25;70.76;99861.44;5033026;28;20371;-69
2022/09/17 08:22:41;;;;;;;0.80;0.30;;;;;;;19.29;70.03;99853.16;5031473;28;20525;-69
2022/09/17 08:25:08;;;;;;;2.15;0.28;;;;;;;19.48;68.80;99855.75;5012927;28;20053;-69
2022/09/17 08:27:34;;;;;;;0.93;0.05;;;;;;;19.36;67.25;99866.63;5038715;28;20112;-67
2022/09/17 08:30:00;;;;;;;4.93;0.30;;;;;;;19.36;67.41;99845.56;5015496;28;20580;-67
2022/09/17 08:32:28;;;;;;;0.50;0.17;;;;;;;19.40;67.08;99865.34;5031931;28;20475;-67
2022/09/17 08:34:54;;;;;;;1.45;0.28;;;;;;;19.39;67.55;99852.91;5032319;28;20034;-67
2022/09/17 08:37:20;;;;;;;1.77;0.22;;;;;;;19.61;66.82;99853.78;5033026;28;20041;-67
2022/09/17 08:39:45;;;;;;;0.73;0.15;;;;;;;19.58;65.63;99851.16;5039642;28;20414;-67
2022/09/17 08:42:20;;;;;;;0.45;0.25;;;;;;;19.39;66.72;99852.91;5029508;28;20112;-67
2022/09/17 08:44:46;;;;;;;0.30;0.10;;;;;;;19.43;67.11;99852.78;5028575;28;20087;-67
2022/09/17 08:47:32;;;;;;;1.38;0.52;;;;;;;19.65;65.78;99850.94;5030923;28;20041;-67
2022/09/17 08:50:02;;;;;;;2.40;0.38;;;;;;;19.89;65.54;99843.22;5033265;28;20695;-67
2022/09/17 08:53:09;;;;;;;1.65;0.35;;;;;;;20.02;65.65;99855.69;5032796;28;20089;-67
2022/09/17 08:55:49;;;;;;;1.27;0.20;;;;;;;20.00;65.26;99833.47;5048934;28;20040;-69
2022/09/17 08:58:42;;;;;;;0.50;0.30;;;;;;;20.00;64.29;99857.31;5050478;28;20045;-69
2022/09/17 09:01:16;;;;;;;0.30;0.10;;;;;;;19.86;64.02;99841.38;5041814;28;20287;-69
2022/09/17 09:04:18;;;;;;;2.00;0.30;;;;;;;19.88;64.65;99841.69;5042634;28;20056;-69
2022/09/17 09:06:54;;;;;;;0.68;0.08;;;;;;;19.96;64.76;99840.25;5038309;28;20036;-70
2022/09/17 09:09:23;;;;;;;0.65;0.10;;;;;;;19.97;65.42;99836.31;5050582;28;20087;-69
2022/09/17 09:12:01;;;;;;;1.35;0.28;;;;;;;19.99;64.82;99839.38;5025000;28;20670;-69
2022/09/17 09:14:32;;;;;;;1.10;0.20;;;;;;;19.89;64.70;99841.25;5043318;28;20037;-69
2022/09/17 09:17:02;;;;;;;1.00;0.33;;;;;;;19.65;64.40;99837.28;5032587;28;20075;-69
2022/09/17 09:19:32;;;;;;;0.68;0.20;;;;;;;19.33;65.50;99840.97;5047633;28;20299;-69
2022/09/17 09:22:27;;;;;;;0.20;0.10;;;;;;;18.97;66.48;99840.38;5037203;28;20029;-68
2022/09/17 09:25:10;;;;;;;2.80;0.20;;;;;;;18.58;68.19;99840.66;5041932;28;20108;-68
2022/09/17 09:27:59;;;;;;;0.63;0.17;;;;;;;18.41;69.05;99844.53;5040346;28;20041;-68
2022/09/17 09:30:33;;;;;;;0.55;0.00;;;;;;;18.41;68.40;99839.09;5036073;28;20110;-68
2022/09/17 09:33:25;;;;;;;2.20;0.22;;;;;;;18.13;69.41;99834.34;5038884;28;20033;-68
2022/09/17 09:35:50;;;;;;;1.13;0.28;;;;;;;18.11;70.26;99848.41;5053230;28;20033;-68
2022/09/17 09:38:31;;;;;;;1.08;0.00;;;;;;;17.91;65.57;99834.06;5027978;28;20047;-67
2022/09/17 09:41:05;;;;;;;0.00;0.00;;;;;;;17.78;65.68;99842.16;5053775;28;20116;-67
2022/09/17 09:43:41;;;;;;;0.00;0.00;;;;;;;17.79;67.06;99843.66;5039630;28;20045;-67
2022/09/17 09:46:15;;;;;;;0.40;0.38;;;;;;;17.58;69.24;99841.41;5045723;28;20024;-67
2022/09/17 09:49:02;;;;;;;1.92;0.63;;;;;;;17.47;70.15;99848.25;5049631;28;20421;-67
2022/09/17 09:51:37;;;;;;;1.45;0.10;;;;;;;17.49;71.10;99841.22;5038886;28;20440;-67
2022/09/17 09:54:35;;;;;;;0.45;0.17;;;;;;;17.86;71.48;99846.25;5042764;28;20041;-68
2022/09/17 09:57:08;;;;;;;2.55;0.10;;;;;;;18.17;67.92;99846.69;5054134;28;20500;-67
2022/09/17 09:59:36;;;;;;;0.05;0.05;;;;;;;18.60;66.03;99851.91;5045158;28;20056;-67
2022/09/17 10:02:03;;;;;;;0.20;0.00;;;;;;;19.05;64.92;99849.91;5032217;28;20397;-67
2022/09/17 10:04:31;;;;;;;0.10;0.00;;;;;;;19.47;64.14;99850.72;5026263;28;20032;-67
2022/09/17 10:07:04;;;;;;;0.68;0.13;;;;;;;19.74;61.56;99851.84;5035797;28;20100;-67
2022/09/17 10:09:31;;;;;;;0.70;0.17;;;;;;;19.85;58.93;99842.56;5035742;28;20509;-67
2022/09/17 10:12:12;;;;;;;1.88;0.30;;;;;;;20.02;57.80;99857.63;5050431;28;20021;-67
2022/09/17 10:14:43;;;;;;;0.08;0.00;;;;;;;20.23;57.13;99857.00;5026398;28;20107;-68
2022/09/17 10:17:19;;;;;;;0.22;0.00;;;;;;;20.22;56.15;99866.41;5041441;28;20154;-67
2022/09/17 10:20:07;;;;;;;0.00;0.00;;;;;;;20.11;56.11;99850.31;5041274;28;20413;-67
2022/09/17 10:22:37;;;;;;;0.10;0.10;;;;;;;19.81;55.97;99850.88;5024406;28;20040;-67
2022/09/17 10:25:06;;;;;;;0.05;0.00;;;;;;;19.71;56.00;99852.72;5024994;28;20452;-67
2022/09/17 10:27:33;;;;;;;0.82;0.10;;;;;;;19.41;56.55;99853.22;5032122;28;20043;-67
2022/09/17 10:30:07;;;;;;;2.60;0.10;;;;;;;19.31;56.91;99848.81;5038327;28;20052;-67
2022/09/17 10:32:33;;;;;;;1.00;0.00;;;;;;;19.32;57.74;99836.69;5046530;28;20085;-67
2022/09/17 10:35:03;;;;;;;0.52;0.10;;;;;;;19.27;57.68;99850.09;5044245;28;20131;-68
2022/09/17 10:37:45;;;;;;;0.63;0.10;;;;;;;19.28;57.14;99844.19;5041441;28;20052;-67
2022/09/17 10:40:17;;;;;;;0.98;0.05;;;;;;;18.93;58.63;99842.44;5041194;28;20537;-68
2022/09/17 10:42:46;;;;;;;0.10;0.10;;;;;;;18.92;60.13;99841.69;5049203;28;20618;-67
2022/09/17 10:45:25;;;;;;;1.10;0.20;;;;;;;18.98;60.58;99841.16;5026518;28;20397;-67
2022/09/17 10:47:52;;;;;;;0.98;0.35;;;;;;;18.92;61.06;99841.69;5013194;28;20079;-66
2022/09/17 10:50:20;;;;;;;2.17;0.30;;;;;;;18.97;61.48;99834.91;5031619;28;20036;-66
2022/09/17 10:52:51;;;;;;;0.00;0.00;;;;;;;19.02;61.91;99844.56;5041603;28;20704;-69
2022/09/17 10:55:38;;;;;;;3.78;0.70;;;;;;;18.96;61.61;99830.66;5047836;28;20075;-67
2022/09/17 10:58:06;;;;;;;0.08;0.00;;;;;;;18.91;61.64;99836.66;5040127;28;20044;-67
2022/09/17 11:00:41;;;;;;;1.67;0.43;;;;;;;18.91;62.43;99831.22;5028712;28;20464;-68
2022/09/17 11:03:34;;;;;;;0.20;0.10;;;;;;;18.85;61.26;99846.56;5019709;28;20033;-68
2022/09/17 11:06:21;;;;;;;0.45;0.05;;;;;;;18.70;61.49;99834.47;5041234;28;20579;-67
2022/09/17 11:09:20;;;;;;;0.20;0.08;;;;;;;18.71;62.10;99825.09;5037383;28;20052;-68
2022/09/17 11:12:10;;;;;;;1.65;0.10;;;;;;;18.57;63.11;99825.47;5042661;28;20025;-67
2022/09/17 11:14:51;;;;;;;0.00;0.00;;;;;;;18.70;63.42;99820.84;5046446;28;20029;-68
2022/09/17 11:17:42;;;;;;;0.55;0.08;;;;;;;18.75;63.47;99828.50;5045945;28;20033;-67
2022/09/17 11:20:28;;;;;;;2.07;0.60;;;;;;;18.66;63.35;99822.91;5059364;28;20108;-67
2022/09/17 11:23:26;;;;;;;0.52;0.10;;;;;;;18.72;64.34;99823.91;5044454;28;20401;-67
2022/09/17 11:25:57;;;;;;;0.70;0.28;;;;;;;18.92;64.16;99825.31;4998318;28;20072;-67
2022/09/17 11:28:32;;;;;;;1.50;0.10;;;;;;;19.05;62.73;99822.63;5050623;28;20455;-67
2022/09/17 11:31:34;;;;;;;1.17;0.30;;;;;;;19.08;63.67;99832.69;5043580;28;20505;-68
2022/09/17 11:34:28;;;;;;;3.95;0.30;;;;;;;19.27;63.97;99812.63;5047344;28;20056;-68
2022/09/17 11:37:13;;;;;;;1.13;0.28;;;;;;;19.46;63.18;99819.91;5048057;28;20040;-67
2022/09/17 11:39:56;;;;;;;0.10;0.10;;;;;;;19.56;62.05;99818.81;5042111;28;20037;-67
2022/09/17 11:42:30;;;;;;;0.35;0.15;;;;;;;19.40;62.00;99821.63;5037193;28;20136;-67
2022/09/17 11:45:13;;;;;;;0.30;0.25;;;;;;;19.29;62.28;99825.84;5038223;28;20033;-68
2022/09/17 11:47:46;;;;;;;2.38;0.40;;;;;;;19.18;61.44;99823.41;5023366;28;20032;-67
2022/09/17 11:50:26;;;;;;;2.50;0.30;;;;;;;18.84;62.55;99810.31;5028206;28;20039;-67
2022/09/17 11:52:51;;;;;;;0.60;0.20;;;;;;;18.81;64.07;99821.34;5057700;28;20096;-67
2022/09/17 11:55:23;;;;;;;1.27;0.50;;;;;;;18.85;64.32;99811.84;5055546;28;20457;-67